aviador You're here:

KACV Decoded Metar

ARCATA/EUREKA in CA, USA
Report Time2017-11-25 03:37:00
UTC Time2017-11-25 03:54:25
Flight Rules ifr IFR
WindCalm
Visibility2816 m
Phenomena:Mist
Clouds:Overcast 005 Hf
Ceiling500 ft
Temp09°C (ISA -6)
Dew Point09°C (100% RH)
AAT8.8°C
QNH1018 hPa
Density Alt-459 ft
Elevation220 ft
Report Wrong Elevation
Raw Report
KACV 250337Z AUTO 00000KT 1 3/4SM BR OVC005 09/09 A3007 RMK AO2
T00890089=

Extra information for KACV:More info

Metar Taf Metar & Taf Last 4 Metars F.Rules Stats Wind Profile Meteogram Temp Stats Airport Information Weather charts Add Link Nearby VenuesMetar ALERT Operation Metar Decoded Social comments

AIRNAV info for KACV